ippawards.com alexa rank chart, ippawards.com alexa rank daily changes

ippawards.com alexa rank chart, ippawards.com alexa rank daily changes

ippawards.com
Actual rank:
987 188

RANK HISTORY

Date Rank Diff
2017/12/16 987 188 -10 606
2017/12/15 997 794 +60 743
2017/12/08 937 051 +11 414
2017/12/07 925 637 +874
2017/12/06 924 763 -3 894
2017/12/05 928 657 +38 339
2017/12/04 890 318 +2 607
2017/12/03 887 711 +1 767
2017/12/02 885 944 +56 335
2017/12/01 829 609 -8 139
2017/11/30 837 748 +17 893
2017/11/29 819 855 +176 005
2017/11/28 643 850 +6 879
2017/11/27 636 971 +15 355
2017/11/26 621 616 +1 427
2017/11/25 620 189 +25 364
2017/11/24 594 825 +1 598
2017/11/23 593 227 +3 614
2017/11/22 589 613 -72 388
2017/11/21 662 001 +10 023
2017/11/20 651 978 -25 802
2017/11/19 677 780 -272
2017/11/18 678 052 +1
2017/11/17 678 051 +6 746
2017/11/16 671 305 +5 986
2017/11/15 665 319 +16 126
2017/11/14 649 193 +410
2017/11/13 648 783 -4 032
2017/11/12 652 815 -18 115
2017/11/11 670 930 -15 439
2017/11/10 686 369 -31 508
2017/11/09 717 877 +145 898
2017/11/08 571 979 -3 877
2017/11/07 575 856 +13 897
2017/11/06 561 959 -21 039
2017/11/05 582 998 -8 087
2017/11/04 591 085 -3 838
2017/11/03 594 923 -1 217
2017/11/02 596 140 -18 332
2017/11/01 614 472 +15 321
2017/10/31 599 151 -4 443
2017/10/30 603 594 -8 541
2017/10/29 612 135 -137 227
2017/10/28 749 362 -15 100
2017/10/27 764 462 -396
2017/10/26 764 858 +5 417
2017/10/25 759 441 -45 551
2017/10/24 804 992 +51 467
2017/10/23 753 525 -4 575
2017/10/22 758 100 +171 791
2017/10/21 586 309 -7 935
2017/10/20 594 244 +29 382
2017/10/19 564 862 +121 591
2017/10/18 443 271 +59 015
2017/10/17 384 256

WIDGET FOR YOUR SITE

DOMAINS WITH THE NEAREST RANK

Domain Rank
richmondballet.com 987 183
kineticww.com 987 184
grand-traverse.mi.us 987 185
mundololita.com 987 186
melatbimeh.com 987 187
ippawards.com 987 188
tampines1.com.sg 987 189
sanctionsalert.com 987 190
warcabal.com 987 191
biiznillah.com 987 192
edu.gov.kg 987 193

DOMAINS WITH THE NEAREST RANK BY TLD .com

Domain Rank
beautifultraumatour.com 987 180
richmondballet.com 987 183
kineticww.com 987 184
mundololita.com 987 186
melatbimeh.com 987 187
ippawards.com 987 188
sanctionsalert.com 987 190
warcabal.com 987 191
biiznillah.com 987 192
cbihateperfume.com 987 198
gns-gmbh.com 987 199